Time;durP1;ratioP1;P1;durP2;ratioP2;P2;SDS_P1;SDS_P2;PMS_P1;PMS_P2;Temp;Humidity;BMP_temperature;BMP_pressure;BME280_temperature;BME280_humidity;BME280_pressure;Samples;Min_cycle;Max_cycle;Signal;HPM_P1;HPM_P2
2021/06/04 00:00:35;;;;;;;10.10;3.20;;;16.70;99.90;;;;;;5092398;28;20089;-62
2021/06/04 00:03:05;;;;;;;5.63;2.60;;;16.70;99.90;;;;;;5088579;28;20501;-60
2021/06/04 00:05:35;;;;;;;5.57;2.45;;;16.60;99.90;;;;;;5090211;28;20520;-60
2021/06/04 00:08:01;;;;;;;5.60;2.60;;;16.50;99.90;;;;;;5092690;28;20463;-61
2021/06/04 00:10:45;;;;;;;5.32;2.70;;;16.40;99.90;;;;;;5093050;28;20044;-60
2021/06/04 00:13:22;;;;;;;4.53;2.35;;;16.30;99.90;;;;;;5080709;28;20032;-62
2021/06/04 00:15:51;;;;;;;4.53;2.38;;;16.20;99.90;;;;;;5088885;28;20036;-60
2021/06/04 00:18:17;;;;;;;9.07;3.08;;;16.20;99.90;;;;;;5077042;28;20028;-62
2021/06/04 00:20:43;;;;;;;4.40;2.60;;;16.10;99.90;;;;;;5071867;28;20078;-60
2021/06/04 00:23:09;;;;;;;6.03;2.70;;;16.00;99.90;;;;;;5085268;28;20111;-59
2021/06/04 00:25:35;;;;;;;4.88;2.58;;;16.00;99.90;;;;;;5078744;28;20123;-60
2021/06/04 00:28:00;;;;;;;8.63;2.70;;;16.00;99.90;;;;;;5085759;28;20043;-60
2021/06/04 00:30:26;;;;;;;4.78;2.60;;;16.00;99.90;;;;;;5074818;28;20044;-61
2021/06/04 00:32:53;;;;;;;11.48;3.25;;;16.00;99.90;;;;;;5076219;28;20534;-61
2021/06/04 00:35:19;;;;;;;4.28;2.50;;;15.90;99.90;;;;;;5086873;28;20394;-61
2021/06/04 00:37:45;;;;;;;5.05;2.30;;;15.80;99.90;;;;;;5086446;28;20093;-60
2021/06/04 00:40:19;;;;;;;11.65;2.65;;;15.70;99.90;;;;;;5087297;28;20028;-61
2021/06/04 00:42:46;;;;;;;4.60;2.60;;;15.60;99.90;;;;;;5077324;28;20032;-62
2021/06/04 00:45:16;;;;;;;6.20;2.63;;;15.50;99.90;;;;;;5077907;28;20386;-60
2021/06/04 00:47:42;;;;;;;6.82;2.35;;;15.50;99.90;;;;;;5085284;28;20086;-62
2021/06/04 00:50:13;;;;;;;3.30;2.30;;;15.40;99.90;;;;;;5081364;28;20036;-61
2021/06/04 00:52:39;;;;;;;3.45;2.30;;;15.40;99.90;;;;;;5085271;28;20027;-62
2021/06/04 00:55:13;;;;;;;4.35;2.38;;;15.30;99.90;;;;;;5082360;28;20115;-60
2021/06/04 00:57:39;;;;;;;3.90;2.47;;;15.30;99.90;;;;;;5077952;28;20178;-60
2021/06/04 01:00:10;;;;;;;5.95;2.15;;;15.30;99.90;;;;;;5092516;28;20032;-60
2021/06/04 01:02:37;;;;;;;4.50;2.40;;;15.20;99.90;;;;;;5076354;28;20463;-60
2021/06/04 01:05:05;;;;;;;3.95;2.38;;;15.10;99.90;;;;;;5084519;28;20032;-60
2021/06/04 01:08:04;;;;;;;6.30;2.15;;;15.00;99.90;;;;;;5076762;28;20107;-60
2021/06/04 01:10:45;;;;;;;5.45;2.65;;;15.00;99.90;;;;;;5087334;28;20088;-61
2021/06/04 01:13:33;;;;;;;4.40;2.25;;;14.90;99.90;;;;;;5087227;28;20035;-61
2021/06/04 01:16:08;;;;;;;7.45;2.63;;;14.90;99.90;;;;;;5075190;28;20039;-61
2021/06/04 01:18:50;;;;;;;5.95;2.80;;;14.90;99.90;;;;;;5091948;28;20036;-61
2021/06/04 01:21:34;;;;;;;5.03;2.30;;;14.90;99.90;;;;;;5082073;28;20074;-61
2021/06/04 01:24:58;;;;;;;3.08;2.50;;;14.90;99.90;;;;;;5065138;28;20033;-61
2021/06/04 01:27:47;;;;;;;8.98;2.60;;;14.90;99.90;;;;;;5030938;28;20049;-63
2021/06/04 01:30:26;;;;;;;5.63;2.60;;;14.90;99.90;;;;;;5076725;28;20059;-61
2021/06/04 01:32:55;;;;;;;5.05;2.53;;;14.80;99.90;;;;;;5079841;28;20028;-61
2021/06/04 01:35:26;;;;;;;7.55;2.40;;;14.80;99.90;;;;;;5091554;28;20028;-61
2021/06/04 01:37:52;;;;;;;4.50;2.30;;;14.80;99.90;;;;;;5090765;28;20023;-62
2021/06/04 01:40:29;;;;;;;3.10;2.22;;;14.70;99.90;;;;;;5074988;28;20033;-61
2021/06/04 01:42:58;;;;;;;4.30;2.30;;;14.80;99.90;;;;;;5069844;28;20185;-60
2021/06/04 01:45:30;;;;;;;3.70;2.13;;;14.80;99.90;;;;;;5066256;28;20047;-61
2021/06/04 01:48:26;;;;;;;4.85;2.70;;;14.80;99.90;;;;;;5080801;28;20031;-61
2021/06/04 01:50:59;;;;;;;4.75;2.70;;;14.80;99.90;;;;;;5073862;28;20058;-61
2021/06/04 01:53:34;;;;;;;4.85;2.50;;;14.80;99.90;;;;;;5069357;28;20040;-61
2021/06/04 01:56:11;;;;;;;;;;;14.70;99.90;;;;;;5058697;28;20033;-62
2021/06/04 01:58:52;;;;;;;5.88;2.92;;;14.70;99.90;;;;;;5076608;28;20020;-61
2021/06/04 02:01:32;;;;;;;4.28;2.50;;;14.70;99.90;;;;;;5068273;28;20028;-62
2021/06/04 02:03:58;;;;;;;7.65;2.30;;;14.70;99.90;;;;;;5072730;28;20118;-61
2021/06/04 02:06:26;;;;;;;14.05;2.83;;;14.80;99.90;;;;;;5081549;28;20038;-63
2021/06/04 02:08:55;;;;;;;5.43;3.00;;;14.90;99.90;;;;;;5073378;28;20028;-62
2021/06/04 02:11:25;;;;;;;7.72;2.88;;;14.90;99.90;;;;;;5070604;28;20094;-62
2021/06/04 02:13:52;;;;;;;6.43;2.45;;;15.00;99.90;;;;;;5070814;28;20043;-61
2021/06/04 02:16:35;;;;;;;4.45;2.60;;;15.00;99.90;;;;;;5069775;28;20474;-61
2021/06/04 02:19:24;;;;;;;6.40;2.50;;;15.00;99.90;;;;;;5080372;28;20034;-62
2021/06/04 02:22:16;;;;;;;8.45;2.80;;;15.00;99.90;;;;;;5078229;28;20047;-62
2021/06/04 02:24:48;;;;;;;3.58;2.40;;;15.00;99.90;;;;;;5071616;28;20093;-62
2021/06/04 02:27:34;;;;;;;6.32;2.50;;;15.10;99.90;;;;;;5061016;28;20029;-62
2021/06/04 02:30:05;;;;;;;5.40;2.72;;;15.10;99.90;;;;;;5067160;28;20036;-62
2021/06/04 02:33:20;;;;;;;7.60;2.80;;;15.20;99.90;;;;;;5075349;28;20028;-61
2021/06/04 02:35:57;;;;;;;8.15;3.00;;;15.10;99.90;;;;;;5043186;28;20071;-62
2021/06/04 02:38:54;;;;;;;3.80;2.55;;;15.10;99.90;;;;;;5071038;28;20543;-60
2021/06/04 02:41:27;;;;;;;4.82;2.78;;;15.10;99.90;;;;;;5071139;28;20066;-62
2021/06/04 02:43:57;;;;;;;7.63;2.90;;;15.10;99.90;;;;;;5076382;28;20386;-62
2021/06/04 02:46:27;;;;;;;7.13;3.33;;;15.00;99.90;;;;;;5081499;28;20122;-61
2021/06/04 02:48:54;;;;;;;4.95;2.70;;;15.00;99.90;;;;;;5072823;28;20052;-62
2021/06/04 02:51:27;;;;;;;6.80;2.92;;;15.10;99.90;;;;;;5076959;28;20044;-60
2021/06/04 02:54:00;;;;;;;6.93;2.85;;;15.10;99.90;;;;;;5066011;28;20029;-60
2021/06/04 02:56:32;;;;;;;10.10;3.78;;;15.10;99.90;;;;;;5075388;28;20090;-62
2021/06/04 02:59:11;;;;;;;10.75;2.85;;;15.00;99.90;;;;;;5059946;28;20398;-62
2021/06/04 03:01:41;;;;;;;7.03;2.92;;;15.10;99.90;;;;;;5085489;28;20097;-61
2021/06/04 03:04:08;;;;;;;6.55;3.00;;;15.10;99.90;;;;;;5064815;28;20024;-60
2021/06/04 03:06:41;;;;;;;11.35;4.20;;;15.00;99.90;;;;;;5081839;28;20040;-62
2021/06/04 03:09:12;;;;;;;10.55;3.08;;;15.00;99.90;;;;;;5083467;28;20025;-62
2021/06/04 03:11:39;;;;;;;6.50;2.88;;;15.00;99.90;;;;;;5074734;28;20032;-61
2021/06/04 03:14:07;;;;;;;6.60;3.15;;;14.90;99.90;;;;;;5072091;28;20024;-61
2021/06/04 03:16:33;;;;;;;6.38;3.10;;;14.90;99.90;;;;;;5076674;28;20035;-60
2021/06/04 03:19:05;;;;;;;7.43;3.28;;;14.80;99.90;;;;;;5073354;28;20028;-63
2021/06/04 03:21:44;;;;;;;4.78;3.00;;;14.80;99.90;;;;;;5069420;28;20397;-62
2021/06/04 03:24:14;;;;;;;8.60;3.10;;;14.80;99.90;;;;;;5070980;28;20028;-60
2021/06/04 03:26:40;;;;;;;7.57;2.95;;;14.70;99.90;;;;;;5074620;28;20071;-59
2021/06/04 03:29:10;;;;;;;8.52;3.70;;;14.70;99.90;;;;;;5073065;28;20028;-61
2021/06/04 03:31:38;;;;;;;6.75;3.10;;;14.70;99.90;;;;;;5066755;28;20044;-61
2021/06/04 03:34:06;;;;;;;12.27;3.03;;;14.70;99.90;;;;;;5076218;28;20363;-61
2021/06/04 03:36:37;;;;;;;7.55;2.90;;;14.60;99.90;;;;;;5073295;28;20044;-61
2021/06/04 03:39:05;;;;;;;4.80;2.75;;;14.70;99.90;;;;;;5072642;28;20028;-61
2021/06/04 03:41:34;;;;;;;5.68;2.95;;;14.70;99.90;;;;;;5073953;28;20056;-61
2021/06/04 03:44:02;;;;;;;5.95;3.00;;;14.70;99.90;;;;;;5074616;28;20041;-62
2021/06/04 03:46:28;;;;;;;8.32;3.50;;;14.70;99.90;;;;;;5073698;28;20082;-61
2021/06/04 03:48:54;;;;;;;6.05;3.13;;;14.60;99.90;;;;;;5070612;28;20032;-61
2021/06/04 03:51:27;;;;;;;5.35;3.03;;;14.60;99.90;;;;;;5074457;28;20055;-62
2021/06/04 03:53:54;;;;;;;5.63;3.00;;;14.60;99.90;;;;;;5076824;28;20028;-61
2021/06/04 03:56:21;;;;;;;5.72;3.00;;;14.50;99.90;;;;;;5061583;28;20041;-61
2021/06/04 03:58:49;;;;;;;14.70;3.33;;;14.50;99.90;;;;;;5072184;28;20032;-60
2021/06/04 04:01:21;;;;;;;9.02;3.15;;;14.50;99.90;;;;;;5073541;28;20394;-63
2021/06/04 04:03:47;;;;;;;7.55;3.10;;;14.60;99.90;;;;;;5075522;28;20079;-61
2021/06/04 04:06:13;;;;;;;7.97;3.30;;;14.60;99.90;;;;;;5073326;28;20024;-61
2021/06/04 04:08:39;;;;;;;6.22;3.08;;;14.60;99.90;;;;;;5065263;28;20138;-62
2021/06/04 04:11:05;;;;;;;5.82;3.28;;;14.60;99.90;;;;;;5078478;28;20040;-60
2021/06/04 04:13:31;;;;;;;6.63;3.10;;;14.60;99.90;;;;;;5078511;28;20035;-62
2021/06/04 04:15:58;;;;;;;6.05;3.20;;;14.60;99.90;;;;;;5059113;28;20092;-60
2021/06/04 04:18:24;;;;;;;7.78;3.20;;;14.60;99.90;;;;;;5065068;28;20467;-60
2021/06/04 04:20:54;;;;;;;7.57;3.25;;;14.50;99.90;;;;;;5072642;28;20040;-61
2021/06/04 04:23:26;;;;;;;5.50;3.13;;;14.70;99.90;;;;;;5071252;28;20024;-60
2021/06/04 04:25:51;;;;;;;8.98;3.60;;;14.60;99.90;;;;;;5072792;28;20049;-60
2021/06/04 04:28:27;;;;;;;8.23;3.33;;;14.70;99.90;;;;;;5071815;28;20463;-62
2021/06/04 04:30:52;;;;;;;9.38;3.20;;;14.70;99.90;;;;;;5072656;28;20719;-59
2021/06/04 04:33:18;;;;;;;11.15;3.53;;;14.70;99.90;;;;;;5081349;28;20031;-60
2021/06/04 04:35:44;;;;;;;8.23;3.20;;;14.70;99.90;;;;;;5079762;28;20032;-60
2021/06/04 04:38:17;;;;;;;5.30;3.20;;;14.70;99.90;;;;;;5071563;28;20113;-62
2021/06/04 04:40:43;;;;;;;7.18;3.33;;;14.70;99.90;;;;;;5077634;28;20037;-61
2021/06/04 04:43:08;;;;;;;7.60;2.95;;;14.90;99.90;;;;;;5074954;28;20032;-62
2021/06/04 04:45:36;;;;;;;6.43;3.17;;;14.80;99.90;;;;;;5072758;28;20047;-63
2021/06/04 04:48:03;;;;;;;7.45;3.10;;;14.90;99.90;;;;;;5071309;28;20078;-62
2021/06/04 04:50:30;;;;;;;8.98;3.40;;;14.90;99.90;;;;;;5075460;28;20819;-61
2021/06/04 04:52:56;;;;;;;8.68;3.20;;;14.90;99.90;;;;;;5071944;28;20067;-61
2021/06/04 04:55:24;;;;;;;4.75;3.00;;;15.00;99.90;;;;;;5071580;28;20096;-60
2021/06/04 04:57:50;;;;;;;8.98;3.63;;;15.10;99.90;;;;;;5074211;28;20117;-62
2021/06/04 05:00:20;;;;;;;11.80;3.17;;;15.20;99.90;;;;;;5071969;28;21654;-62
2021/06/04 05:02:46;;;;;;;7.80;3.47;;;15.10;99.90;;;;;;5070782;28;20369;-61
2021/06/04 05:05:14;;;;;;;7.55;3.28;;;15.20;99.90;;;;;;5079428;28;20466;-61
2021/06/04 05:07:39;;;;;;;12.60;3.35;;;15.30;99.90;;;;;;5072452;28;20471;-61
2021/06/04 05:10:07;;;;;;;10.13;4.07;;;15.40;99.90;;;;;;5072591;28;20119;-62
2021/06/04 05:12:34;;;;;;;4.80;3.13;;;15.50;99.90;;;;;;5063951;28;20028;-60
2021/06/04 05:15:01;;;;;;;7.70;3.55;;;15.60;99.90;;;;;;5083704;28;20036;-61
2021/06/04 05:17:27;;;;;;;10.13;3.28;;;15.60;99.90;;;;;;5076164;28;20405;-61
2021/06/04 05:19:53;;;;;;;9.63;3.40;;;15.60;99.90;;;;;;5069586;28;20111;-63
2021/06/04 05:22:18;;;;;;;7.68;3.53;;;15.70;99.90;;;;;;5072163;28;20482;-61
2021/06/04 05:24:44;;;;;;;9.23;3.42;;;15.80;99.90;;;;;;5077178;28;20040;-61
2021/06/04 05:27:11;;;;;;;18.95;3.85;;;15.70;99.90;;;;;;5077071;28;20040;-64
2021/06/04 05:29:37;;;;;;;10.38;4.10;;;15.80;99.90;;;;;;5085368;28;20477;-61
2021/06/04 05:32:03;;;;;;;14.18;4.47;;;15.80;99.90;;;;;;5088659;28;20065;-61
2021/06/04 05:34:29;;;;;;;8.02;3.72;;;15.80;99.90;;;;;;5070968;28;20094;-61
2021/06/04 05:36:57;;;;;;;9.75;4.15;;;15.80;99.90;;;;;;5078851;28;20028;-60
2021/06/04 05:39:24;;;;;;;11.93;4.45;;;15.80;99.90;;;;;;5070138;28;20021;-60
2021/06/04 05:41:54;;;;;;;13.65;4.25;;;15.90;99.90;;;;;;5073589;28;20593;-60
2021/06/04 05:44:23;;;;;;;18.02;5.82;;;16.00;99.90;;;;;;5070513;28;20073;-64
2021/06/04 05:46:52;;;;;;;8.60;3.83;;;16.10;99.90;;;;;;5069085;28;20127;-59
2021/06/04 05:49:19;;;;;;;7.45;3.88;;;16.10;99.90;;;;;;5079368;28;20028;-62
2021/06/04 05:51:46;;;;;;;9.20;4.60;;;16.10;99.90;;;;;;5074821;28;20055;-63
2021/06/04 05:54:14;;;;;;;13.43;4.63;;;16.10;99.90;;;;;;5070448;28;20020;-62
2021/06/04 05:56:39;;;;;;;8.20;4.00;;;16.10;99.90;;;;;;5071269;28;20513;-62
2021/06/04 05:59:05;;;;;;;7.65;3.83;;;16.10;99.90;;;;;;5069636;28;20070;-61
2021/06/04 06:01:34;;;;;;;8.70;4.25;;;16.00;99.90;;;;;;5071000;28;20036;-61
2021/06/04 06:04:01;;;;;;;12.30;4.05;;;16.00;99.90;;;;;;5071782;28;20037;-61
2021/06/04 06:06:26;;;;;;;14.10;5.28;;;15.90;99.90;;;;;;5079831;28;20028;-62
2021/06/04 06:08:52;;;;;;;10.88;4.65;;;15.90;99.90;;;;;;5070608;28;20025;-60
2021/06/04 06:11:22;;;;;;;10.55;4.32;;;16.00;99.90;;;;;;5069976;28;20071;-63
2021/06/04 06:13:50;;;;;;;15.45;4.68;;;16.00;99.90;;;;;;5081798;28;20051;-62
2021/06/04 06:16:16;;;;;;;9.52;4.30;;;16.00;99.90;;;;;;5069968;28;20062;-61
2021/06/04 06:18:42;;;;;;;13.35;5.05;;;16.00;99.90;;;;;;5065035;28;20052;-62
2021/06/04 06:21:08;;;;;;;8.18;4.15;;;16.00;99.90;;;;;;5083375;28;20024;-61
2021/06/04 06:23:36;;;;;;;7.40;4.45;;;16.10;99.90;;;;;;5071931;28;20116;-63
2021/06/04 06:26:07;;;;;;;12.75;4.82;;;16.20;99.90;;;;;;5070368;28;20052;-61
2021/06/04 06:28:34;;;;;;;11.93;4.97;;;16.20;99.90;;;;;;5061904;28;20044;-62
2021/06/04 06:31:16;;;;;;;12.18;5.25;;;16.20;99.90;;;;;;5073363;28;20604;-62
2021/06/04 06:33:43;;;;;;;13.50;4.80;;;16.30;99.90;;;;;;5075833;28;20024;-60
2021/06/04 06:36:12;;;;;;;11.15;5.00;;;16.30;99.90;;;;;;5072486;28;20085;-63
2021/06/04 06:38:38;;;;;;;11.27;4.38;;;16.40;99.90;;;;;;5070401;28;20079;-62
2021/06/04 06:41:10;;;;;;;10.38;5.03;;;16.30;99.90;;;;;;5066361;28;20064;-62
2021/06/04 06:43:37;;;;;;;16.25;4.90;;;16.40;99.90;;;;;;5074747;28;20481;-60
2021/06/04 06:46:05;;;;;;;10.68;4.53;;;16.30;99.90;;;;;;5074851;28;20487;-62
2021/06/04 06:48:31;;;;;;;12.00;4.88;;;16.40;99.90;;;;;;5076122;28;20753;-62
2021/06/04 06:50:57;;;;;;;13.43;5.07;;;16.40;99.90;;;;;;5070435;28;20035;-62
2021/06/04 06:53:24;;;;;;;10.90;4.75;;;16.50;99.90;;;;;;5068804;28;20032;-61
2021/06/04 06:55:51;;;;;;;14.65;4.20;;;16.60;99.90;;;;;;5069269;28;20047;-63
2021/06/04 06:58:18;;;;;;;9.95;4.55;;;16.70;99.90;;;;;;5070000;28;20579;-62
2021/06/04 07:00:47;;;;;;;9.35;4.05;;;16.90;99.90;;;;;;5067766;28;20037;-62
2021/06/04 07:03:16;;;;;;;11.93;4.28;;;17.00;99.90;;;;;;5070377;28;20028;-62
2021/06/04 07:05:43;;;;;;;17.13;4.95;;;17.30;99.90;;;;;;5067218;28;20017;-62
2021/06/04 07:08:10;;;;;;;6.95;3.92;;;17.80;99.90;;;;;;5070839;28;20028;-62
2021/06/04 07:10:37;;;;;;;14.60;4.70;;;18.30;99.90;;;;;;5074148;28;20040;-63
2021/06/04 07:13:07;;;;;;;13.02;4.35;;;18.20;99.90;;;;;;5084699;28;20020;-61
2021/06/04 07:15:33;;;;;;;14.02;4.15;;;18.30;99.90;;;;;;5068318;28;20020;-61
2021/06/04 07:17:59;;;;;;;15.00;4.72;;;18.30;99.90;;;;;;5081391;28;20044;-64
2021/06/04 07:20:28;;;;;;;11.35;3.60;;;18.40;99.90;;;;;;5064221;28;20036;-61
2021/06/04 07:22:56;;;;;;;9.65;3.97;;;18.50;99.90;;;;;;5069721;28;20027;-61
2021/06/04 07:25:31;;;;;;;11.90;3.53;;;18.40;99.90;;;;;;5069243;28;20056;-62
2021/06/04 07:27:57;;;;;;;16.75;4.22;;;18.30;99.90;;;;;;5064006;28;20021;-62
2021/06/04 07:30:27;;;;;;;9.82;3.67;;;18.20;99.90;;;;;;5073030;28;20416;-60
2021/06/04 07:32:53;;;;;;;19.88;4.00;;;18.10;99.90;;;;;;5076752;28;20107;-61
2021/06/04 07:35:22;;;;;;;7.05;3.47;;;17.90;99.90;;;;;;5073393;28;20539;-61
2021/06/04 07:37:48;;;;;;;7.40;3.03;;;17.80;99.90;;;;;;5083448;28;20028;-62
2021/06/04 07:40:19;;;;;;;11.32;3.42;;;17.70;99.90;;;;;;5074778;28;20058;-62
2021/06/04 07:42:46;;;;;;;18.73;4.07;;;17.70;99.90;;;;;;5083844;28;20096;-62
2021/06/04 07:45:12;;;;;;;15.13;3.50;;;17.70;99.90;;;;;;5073764;28;20711;-63
2021/06/04 07:47:38;;;;;;;8.32;3.47;;;17.70;99.90;;;;;;5073513;28;20100;-61
2021/06/04 07:50:08;;;;;;;12.25;2.92;;;17.70;99.90;;;;;;5073049;28;20116;-60
2021/06/04 07:52:34;;;;;;;16.40;3.45;;;17.80;99.90;;;;;;5079341;28;20110;-61
2021/06/04 07:55:00;;;;;;;8.82;3.20;;;17.90;99.90;;;;;;5071758;28;20025;-62
2021/06/04 07:57:27;;;;;;;17.70;4.80;;;18.00;99.90;;;;;;5073377;28;20024;-61
2021/06/04 07:59:53;;;;;;;8.25;2.85;;;18.00;99.90;;;;;;5077062;28;20059;-63
2021/06/04 08:02:19;;;;;;;14.98;4.05;;;18.20;99.90;;;;;;5071721;28;20036;-62
2021/06/04 08:04:45;;;;;;;9.75;3.10;;;18.20;99.90;;;;;;5072875;28;20036;-61
2021/06/04 08:07:11;;;;;;;8.40;3.00;;;18.50;99.90;;;;;;5070869;28;20043;-62
2021/06/04 08:09:41;;;;;;;11.65;3.30;;;18.70;99.90;;;;;;5075865;28;20021;-61
2021/06/04 08:12:11;;;;;;;13.95;2.92;;;19.10;99.90;;;;;;5074784;28;20044;-61
2021/06/04 08:17:58;;;;;;;11.05;3.13;;;19.30;99.90;;;;;;5074896;28;20024;-61
2021/06/04 08:20:28;;;;;;;9.23;2.70;;;19.20;99.90;;;;;;5074036;28;20120;-61
2021/06/04 08:22:56;;;;;;;12.93;2.97;;;19.20;99.90;;;;;;5074438;28;20051;-61
2021/06/04 08:29:06;;;;;;;16.17;4.20;;;19.20;99.90;;;;;;5065805;28;20378;-61
2021/06/04 08:31:33;;;;;;;11.57;4.03;;;19.00;99.90;;;;;;5073865;28;20036;-62
2021/06/04 08:37:21;;;;;;;16.00;2.78;;;18.80;99.90;;;;;;5074448;28;20093;-62
2021/06/04 08:39:47;;;;;;;9.13;3.00;;;18.80;99.90;;;;;;5074062;28;20067;-61
2021/06/04 08:42:29;;;;;;;14.15;3.30;;;18.80;99.90;;;;;;5080339;28;20024;-62
2021/06/04 08:44:58;;;;;;;10.45;3.17;;;18.90;99.90;;;;;;5067845;28;20052;-60
2021/06/04 08:47:31;;;;;;;14.38;3.55;;;18.90;99.90;;;;;;5063223;28;20033;-60
2021/06/04 08:50:39;;;;;;;11.52;3.50;;;18.90;99.90;;;;;;5074619;28;20021;-60
2021/06/04 08:53:18;;;;;;;12.63;3.88;;;19.00;99.90;;;;;;5079042;28;20398;-61
2021/06/04 08:55:58;;;;;;;13.20;3.85;;;18.70;99.90;;;;;;5073065;28;20440;-60
2021/06/04 08:58:49;;;;;;;11.65;3.88;;;18.60;99.90;;;;;;5076185;28;20024;-62
2021/06/04 09:01:43;;;;;;;10.25;3.45;;;18.60;99.90;;;;;;5062427;28;20028;-61
2021/06/04 09:04:16;;;;;;;15.88;3.47;;;18.60;99.90;;;;;;5079546;28;20029;-60
2021/06/04 09:07:06;;;;;;;11.15;3.65;;;18.60;99.90;;;;;;5077652;28;20473;-61
2021/06/04 09:09:53;;;;;;;11.80;3.42;;;18.60;99.90;;;;;;5080717;28;20028;-61
2021/06/04 09:12:37;;;;;;;10.98;3.60;;;18.50;99.90;;;;;;5069194;28;20757;-60
2021/06/04 09:15:06;;;;;;;11.00;3.60;;;18.40;99.90;;;;;;5076351;28;20056;-61
2021/06/04 09:18:09;;;;;;;9.15;3.38;;;18.40;99.90;;;;;;5075650;28;20114;-61
2021/06/04 09:20:44;;;;;;;13.02;3.67;;;18.40;99.90;;;;;;5074461;28;20047;-60
2021/06/04 09:23:14;;;;;;;16.13;3.78;;;18.30;99.90;;;;;;5078503;28;20044;-61
2021/06/04 09:25:42;;;;;;;8.93;3.25;;;18.30;99.90;;;;;;5071523;28;20257;-61
2021/06/04 09:28:10;;;;;;;14.45;4.22;;;18.30;99.90;;;;;;5068960;28;20067;-62
2021/06/04 09:30:45;;;;;;;6.93;3.00;;;18.20;99.90;;;;;;5081060;28;20036;-61
2021/06/04 09:33:15;;;;;;;15.23;4.07;;;18.10;99.90;;;;;;5074839;28;20032;-62
2021/06/04 09:36:06;;;;;;;10.18;3.40;;;18.00;99.90;;;;;;5071871;28;20052;-60
2021/06/04 09:38:58;;;;;;;14.40;4.28;;;18.10;99.90;;;;;;5077354;28;20040;-60
2021/06/04 09:41:24;;;;;;;12.05;4.35;;;18.10;99.90;;;;;;5061992;28;20056;-62
2021/06/04 09:44:11;;;;;;;15.75;4.15;;;18.00;99.90;;;;;;5067998;28;20036;-61
2021/06/04 09:46:55;;;;;;;13.95;4.18;;;18.10;99.90;;;;;;5063955;28;20142;-61
2021/06/04 09:49:32;;;;;;;10.32;4.30;;;18.00;99.90;;;;;;5061711;28;20028;-60
2021/06/04 09:52:28;;;;;;;10.77;4.63;;;18.00;99.90;;;;;;5074952;28;20079;-61
2021/06/04 09:55:19;;;;;;;8.88;3.58;;;18.00;99.90;;;;;;5072066;28;20497;-60
2021/06/04 09:58:09;;;;;;;13.55;4.10;;;17.90;99.90;;;;;;5070426;28;20031;-62
2021/06/04 10:00:53;;;;;;;12.63;4.72;;;17.90;99.90;;;;;;5069269;28;20033;-61
2021/06/04 10:03:35;;;;;;;10.98;4.82;;;17.90;99.90;;;;;;5073347;28;20109;-61
2021/06/04 10:06:10;;;;;;;11.70;4.22;;;17.90;99.90;;;;;;5072510;28;20020;-61
2021/06/04 10:08:54;;;;;;;;;;;17.90;99.90;;;;;;5083738;28;20050;-61
2021/06/04 10:11:31;;;;;;;15.93;4.68;;;17.90;99.90;;;;;;5081977;28;19956;-60
2021/06/04 10:14:07;;;;;;;11.48;4.68;;;17.90;99.90;;;;;;5072725;28;20024;-59
2021/06/04 10:19:24;;;;;;;12.55;4.78;;;17.70;99.90;;;;;;5050727;28;20044;-60
2021/06/04 10:22:07;;;;;;;13.95;5.53;;;17.60;99.90;;;;;;5067374;28;20031;-62
2021/06/04 10:24:35;;;;;;;13.68;5.68;;;17.60;99.90;;;;;;5051313;28;20029;-60
2021/06/04 10:27:04;;;;;;;12.27;5.15;;;17.70;99.90;;;;;;5063706;28;20032;-59
2021/06/04 10:29:30;;;;;;;9.32;5.45;;;17.60;99.90;;;;;;5070841;28;20134;-60
2021/06/04 10:32:02;;;;;;;15.73;6.43;;;17.60;99.90;;;;;;5069477;28;20112;-60
2021/06/04 10:34:51;;;;;;;12.25;5.80;;;17.70;99.90;;;;;;5068976;28;20024;-64
2021/06/04 10:37:43;;;;;;;15.02;6.53;;;17.70;99.90;;;;;;5063202;28;20490;-62
2021/06/04 10:40:41;;;;;;;17.02;5.90;;;17.80;99.90;;;;;;5065460;28;20529;-61
2021/06/04 10:43:22;;;;;;;13.13;5.60;;;17.80;99.90;;;;;;5076724;28;20112;-62
2021/06/04 10:46:23;;;;;;;19.40;7.05;;;17.70;99.90;;;;;;5066427;28;20085;-61
2021/06/04 10:49:27;;;;;;;16.67;5.65;;;17.60;99.90;;;;;;5071717;28;20032;-62
2021/06/04 10:51:58;;;;;;;19.20;7.00;;;17.50;99.90;;;;;;5067158;28;20040;-61
2021/06/04 10:55:02;;;;;;;15.63;6.90;;;17.50;99.90;;;;;;5070571;28;20490;-61
2021/06/04 10:58:16;;;;;;;25.77;8.38;;;17.50;99.90;;;;;;5070146;28;20028;-62
2021/06/04 11:00:56;;;;;;;16.90;8.02;;;17.30;99.90;;;;;;5066590;28;20041;-62
2021/06/04 11:03:55;;;;;;;19.08;8.02;;;17.20;99.90;;;;;;5080135;28;20021;-60
2021/06/04 11:06:44;;;;;;;18.90;7.38;;;17.20;99.90;;;;;;5074207;28;20044;-63
2021/06/04 11:09:30;;;;;;;20.45;6.88;;;17.10;99.90;;;;;;5073688;28;20028;-61
2021/06/04 11:12:30;;;;;;;16.27;7.57;;;17.20;99.90;;;;;;5066243;28;20047;-61
2021/06/04 11:15:05;;;;;;;17.70;6.72;;;17.00;99.90;;;;;;5057207;28;20040;-60
2021/06/04 11:18:02;;;;;;;15.10;7.28;;;17.00;99.90;;;;;;5081484;28;20033;-61
2021/06/04 11:20:48;;;;;;;21.95;9.02;;;16.90;99.90;;;;;;5050880;28;20041;-61
2021/06/04 11:23:32;;;;;;;21.65;8.65;;;17.00;99.90;;;;;;5086067;28;20059;-62
2021/06/04 11:26:02;;;;;;;18.75;7.70;;;17.00;99.90;;;;;;5073275;28;20024;-62
2021/06/04 11:28:49;;;;;;;18.85;7.22;;;17.00;99.90;;;;;;5077301;28;20048;-64
2021/06/04 11:31:53;;;;;;;19.17;8.10;;;17.00;99.90;;;;;;5091471;28;20032;-62
2021/06/04 11:34:46;;;;;;;23.08;8.45;;;16.90;99.90;;;;;;5024224;28;20375;-61
2021/06/04 11:37:53;;;;;;;21.70;7.95;;;16.90;99.90;;;;;;5071487;28;20028;-62
2021/06/04 11:40:41;;;;;;;13.13;7.28;;;16.90;99.90;;;;;;5072415;28;20470;-62
2021/06/04 11:43:12;;;;;;;17.15;6.93;;;16.80;99.90;;;;;;5062789;28;20047;-63
2021/06/04 11:45:39;;;;;;;26.13;8.18;;;16.80;99.90;;;;;;5072991;28;20027;-62
2021/06/04 11:48:20;;;;;;;18.90;8.05;;;16.70;99.90;;;;;;5074466;28;20017;-61
2021/06/04 11:50:47;;;;;;;15.85;6.32;;;16.80;99.90;;;;;;5071913;28;20095;-61
2021/06/04 11:53:28;;;;;;;26.85;10.90;;;16.80;99.90;;;;;;5075733;28;20118;-64
2021/06/04 11:55:55;;;;;;;17.15;7.28;;;16.80;99.90;;;;;;5068123;28;20024;-61
2021/06/04 11:58:44;;;;;;;15.50;6.93;;;16.60;99.90;;;;;;5078693;28;20032;-61
2021/06/04 12:01:22;;;;;;;17.75;7.20;;;16.60;99.90;;;;;;5075503;28;20109;-62
2021/06/04 12:04:00;;;;;;;20.10;6.88;;;16.50;99.90;;;;;;5077079;28;20039;-63
2021/06/04 12:06:27;;;;;;;19.23;6.63;;;16.60;99.90;;;;;;5087536;28;20454;-63
2021/06/04 12:08:55;;;;;;;16.73;7.28;;;16.60;99.90;;;;;;5073025;28;20028;-62
2021/06/04 12:11:21;;;;;;;14.77;6.25;;;16.60;99.90;;;;;;5072547;28;20115;-62
2021/06/04 12:13:50;;;;;;;12.32;6.40;;;16.60;99.90;;;;;;5078065;28;20108;-62
2021/06/04 12:16:30;;;;;;;13.57;6.35;;;16.60;99.90;;;;;;5070779;28;20701;-62
2021/06/04 12:19:16;;;;;;;15.43;7.18;;;16.60;99.90;;;;;;5072688;28;20039;-63
2021/06/04 12:21:43;;;;;;;20.98;6.80;;;16.60;99.90;;;;;;5069305;28;20028;-62
2021/06/04 12:24:20;;;;;;;21.98;8.07;;;16.50;99.90;;;;;;5071254;28;20024;-63
2021/06/04 12:26:57;;;;;;;22.13;7.65;;;16.40;99.90;;;;;;5067606;28;20021;-63
2021/06/04 12:29:31;;;;;;;11.63;6.45;;;16.40;99.90;;;;;;5060108;28;20048;-64
2021/06/04 12:32:05;;;;;;;17.67;6.97;;;16.40;99.90;;;;;;5072156;28;20028;-60
2021/06/04 12:34:40;;;;;;;21.87;7.67;;;16.50;99.90;;;;;;5073058;28;20121;-62
2021/06/04 12:37:17;;;;;;;17.85;7.57;;;16.40;99.90;;;;;;5071885;28;20287;-62
2021/06/04 12:39:49;;;;;;;18.45;6.60;;;16.40;99.90;;;;;;5070852;28;20039;-61
2021/06/04 12:42:38;;;;;;;13.00;6.18;;;16.40;99.90;;;;;;5071476;28;20021;-61
2021/06/04 12:45:16;;;;;;;14.13;6.63;;;16.30;99.90;;;;;;5071488;28;20440;-61
2021/06/04 12:47:49;;;;;;;22.08;9.93;;;16.30;99.90;;;;;;5070283;28;20103;-61
2021/06/04 12:50:32;;;;;;;19.92;7.43;;;16.30;99.90;;;;;;5071916;28;20020;-63
2021/06/04 12:53:29;;;;;;;13.32;6.90;;;16.30;99.90;;;;;;5071951;28;20025;-60
2021/06/04 12:55:57;;;;;;;15.93;6.00;;;16.30;99.90;;;;;;5054741;28;20041;-61
2021/06/04 12:58:33;;;;;;;17.30;7.13;;;16.30;99.90;;;;;;5071116;28;20505;-61
2021/06/04 13:01:13;;;;;;;15.35;7.45;;;16.30;99.90;;;;;;5065792;28;20037;-62
2021/06/04 13:03:55;;;;;;;18.02;7.13;;;16.20;99.90;;;;;;5070838;28;20021;-61
2021/06/04 13:06:34;;;;;;;19.75;7.82;;;16.10;99.90;;;;;;5069192;28;20029;-64
2021/06/04 13:09:02;;;;;;;20.27;12.02;;;16.00;99.90;;;;;;5066164;28;20385;-62
2021/06/04 13:11:44;;;;;;;16.80;8.27;;;16.00;99.90;;;;;;5069655;28;20071;-63
2021/06/04 13:14:40;;;;;;;15.35;8.13;;;15.90;99.90;;;;;;5070993;28;20467;-63
2021/06/04 13:17:15;;;;;;;16.50;7.57;;;16.00;99.90;;;;;;5066783;28;20036;-66
2021/06/04 13:19:42;;;;;;;17.70;7.13;;;16.10;99.90;;;;;;5068117;28;20510;-62
2021/06/04 13:22:20;;;;;;;17.38;7.18;;;16.10;99.90;;;;;;5066115;28;20052;-61
2021/06/04 13:24:46;;;;;;;15.45;7.18;;;16.00;99.90;;;;;;5070723;28;20445;-61
2021/06/04 13:27:27;;;;;;;13.93;7.75;;;16.00;99.90;;;;;;5071013;28;20343;-63
2021/06/04 13:30:04;;;;;;;17.95;7.47;;;16.00;99.90;;;;;;5068735;28;20450;-62